Summit, South Dakota
Current Conditions -  °F | °C
As of 9:53 PM on Sunday 23 Nov 2014 (Local Time) from KATY Reporting Station
Overcast Overcast  
Wind Chill: -15°   Ceiling: 1600
Heat Index: -6°   Visibility: 10mi
Dew Point: -10°   Wind: 22mph
Humidity: 74%   Direction: 320°NW
Pressure: 29.53"   Gusts: 31mph
Location:  45.3°N, 97.04°W
Report Text: KATY 240353Z AUTO 32019G27KT 10SM OVC016 M06/M10 A2953 RMK AO2 PK WND 32030/0313 SLP021 T10611100
Loading
Personal Weather Stations






























Interactive Weather Map New forecast layout! Learn more

10-Day Weather Forecast

Advertisements
Track Severe Weather on mobile